sensor_id;sensor_type;location;lat;lon;timestamp;pressure;altitude;pressure_sealevel;temperature;humidity
33163;BME280;29282;45.656;11.302;2023-05-25T00:01:35;98367.06;;;20.31;58.84
33163;BME280;29282;45.656;11.302;2023-05-25T00:04:01;98378.06;;;20.31;58.88
33163;BME280;29282;45.656;11.302;2023-05-25T00:06:31;98378.06;;;20.31;58.96
33163;BME280;29282;45.656;11.302;2023-05-25T00:08:56;98380.03;;;20.30;59.11
33163;BME280;29282;45.656;11.302;2023-05-25T00:11:23;98374.53;;;20.30;58.88
33163;BME280;29282;45.656;11.302;2023-05-25T00:13:50;98375.31;;;20.31;59.00
33163;BME280;29282;45.656;11.302;2023-05-25T00:16:18;98386.31;;;20.31;58.91
33163;BME280;29282;45.656;11.302;2023-05-25T00:18:45;98386.31;;;20.31;58.78
33163;BME280;29282;45.656;11.302;2023-05-25T00:21:13;98386.31;;;20.31;58.71
33163;BME280;29282;45.656;11.302;2023-05-25T00:23:38;98389.06;;;20.31;58.71
33163;BME280;29282;45.656;11.302;2023-05-25T00:26:03;98373.72;;;20.30;58.84
33163;BME280;29282;45.656;11.302;2023-05-25T00:28:29;98376.47;;;20.30;58.65
33163;BME280;29282;45.656;11.302;2023-05-25T00:30:55;98388.28;;;20.30;58.91
33163;BME280;29282;45.656;11.302;2023-05-25T00:33:20;98383.56;;;20.31;58.83
33163;BME280;29282;45.656;11.302;2023-05-25T00:35:46;98378.41;;;20.29;58.76
33163;BME280;29282;45.656;11.302;2023-05-25T00:38:13;98379.22;;;20.30;58.83
33163;BME280;29282;45.656;11.302;2023-05-25T00:40:39;98377.28;;;20.30;58.66
33163;BME280;29282;45.656;11.302;2023-05-25T00:43:07;98375.66;;;20.29;58.74
33163;BME280;29282;45.656;11.302;2023-05-25T00:45:32;98381.97;;;20.30;58.59
33163;BME280;29282;45.656;11.302;2023-05-25T00:47:59;98375.66;;;20.29;58.69
33163;BME280;29282;45.656;11.302;2023-05-25T00:50:45;98371.75;;;20.30;58.91
33163;BME280;29282;45.656;11.302;2023-05-25T00:53:12;98373.72;;;20.30;58.86
33163;BME280;29282;45.656;11.302;2023-05-25T00:55:44;98380.03;;;20.30;58.88
33163;BME280;29282;45.656;11.302;2023-05-25T00:58:15;98390.22;;;20.30;58.75
33163;BME280;29282;45.656;11.302;2023-05-25T01:00:42;98391.34;;;20.29;58.84
33163;BME280;29282;45.656;11.302;2023-05-25T01:03:14;98381.97;;;20.30;58.90
33163;BME280;29282;45.656;11.302;2023-05-25T01:05:44;98381.16;;;20.29;58.80
33163;BME280;29282;45.656;11.302;2023-05-25T01:08:13;98389.41;;;20.29;58.82
33163;BME280;29282;45.656;11.302;2023-05-25T01:10:42;98380.34;;;20.29;58.63
33163;BME280;29282;45.656;11.302;2023-05-25T01:13:12;98386.66;;;20.29;58.58
33163;BME280;29282;45.656;11.302;2023-05-25T01:15:40;98391.03;;;20.30;58.66
33163;BME280;29282;45.656;11.302;2023-05-25T01:18:05;98391.34;;;20.29;58.66
33163;BME280;29282;45.656;11.302;2023-05-25T01:20:33;98396.06;;;20.28;58.86
33163;BME280;29282;45.656;11.302;2023-05-25T01:23:05;98403.97;;;20.30;58.85
33163;BME280;29282;45.656;11.302;2023-05-25T01:25:47;98402.34;;;20.29;58.84
33163;BME280;29282;45.656;11.302;2023-05-25T01:28:20;98402.34;;;20.29;58.95
33163;BME280;29282;45.656;11.302;2023-05-25T01:30:48;98402.34;;;20.29;58.66
33163;BME280;29282;45.656;11.302;2023-05-25T01:33:16;98409.50;;;20.30;58.74
33163;BME280;29282;45.656;11.302;2023-05-25T01:35:45;98402.34;;;20.29;58.72
33163;BME280;29282;45.656;11.302;2023-05-25T01:38:11;98405.09;;;20.29;58.76
33163;BME280;29282;45.656;11.302;2023-05-25T01:40:37;98405.09;;;20.29;58.81
33163;BME280;29282;45.656;11.302;2023-05-25T01:43:02;98409.50;;;20.30;58.75
33163;BME280;29282;45.656;11.302;2023-05-25T01:45:28;98416.13;;;20.29;58.72
33163;BME280;29282;45.656;11.302;2023-05-25T01:48:26;98413.38;;;20.29;58.96
33163;BME280;29282;45.656;11.302;2023-05-25T01:50:59;98418.88;;;20.29;58.80
33163;BME280;29282;45.656;11.302;2023-05-25T01:53:29;98427.13;;;20.29;58.83
33163;BME280;29282;45.656;11.302;2023-05-25T01:55:59;98421.63;;;20.29;58.79
33163;BME280;29282;45.656;11.302;2023-05-25T01:58:28;98418.06;;;20.28;58.67
33163;BME280;29282;45.656;11.302;2023-05-25T02:00:57;98429.88;;;20.29;58.93
33163;BME280;29282;45.656;11.302;2023-05-25T02:03:23;98415.31;;;20.28;58.96
33163;BME280;29282;45.656;11.302;2023-05-25T02:05:49;98429.88;;;20.29;58.76
33163;BME280;29282;45.656;11.302;2023-05-25T02:08:15;98425.53;;;20.28;58.54
33163;BME280;29282;45.656;11.302;2023-05-25T02:10:40;98430.66;;;20.29;58.64
33163;BME280;29282;45.656;11.302;2023-05-25T02:13:05;98428.28;;;20.28;58.71
33163;BME280;29282;45.656;11.302;2023-05-25T02:15:32;98435.38;;;20.29;58.72
33163;BME280;29282;45.656;11.302;2023-05-25T02:18:00;98439.28;;;20.28;58.78
33163;BME280;29282;45.656;11.302;2023-05-25T02:20:27;98434.56;;;20.28;58.87
33163;BME280;29282;45.656;11.302;2023-05-25T02:22:52;98442.03;;;20.28;58.55
33163;BME280;29282;45.656;11.302;2023-05-25T02:25:18;98434.56;;;20.28;58.84
33163;BME280;29282;45.656;11.302;2023-05-25T02:27:44;98439.28;;;20.28;58.75
33163;BME280;29282;45.656;11.302;2023-05-25T02:30:10;98439.28;;;20.28;58.86
33163;BME280;29282;45.656;11.302;2023-05-25T02:32:35;98450.28;;;20.28;58.68
33163;BME280;29282;45.656;11.302;2023-05-25T02:35:01;98446.75;;;20.27;58.67
33163;BME280;29282;45.656;11.302;2023-05-25T02:37:27;98455.78;;;20.28;58.62
33163;BME280;29282;45.656;11.302;2023-05-25T02:39:53;98453.03;;;20.28;58.67
33163;BME280;29282;45.656;11.302;2023-05-25T02:42:21;98448.69;;;20.27;58.52
33163;BME280;29282;45.656;11.302;2023-05-25T02:44:47;98453.03;;;20.28;58.66
33163;BME280;29282;45.656;11.302;2023-05-25T02:47:16;98444.78;;;20.28;58.65
33163;BME280;29282;45.656;11.302;2023-05-25T02:49:48;98455.00;;;20.27;58.69
33163;BME280;29282;45.656;11.302;2023-05-25T02:52:14;98455.00;;;20.27;58.62
33163;BME280;29282;45.656;11.302;2023-05-25T02:54:39;98471.50;;;20.27;58.82
33163;BME280;29282;45.656;11.302;2023-05-25T02:57:05;98466.00;;;20.27;58.75
33163;BME280;29282;45.656;11.302;2023-05-25T02:59:32;98467.94;;;20.27;58.69
33163;BME280;29282;45.656;11.302;2023-05-25T03:01:58;98461.28;;;20.28;58.55
33163;BME280;29282;45.656;11.302;2023-05-25T03:04:24;98462.44;;;20.27;58.50
33163;BME280;29282;45.656;11.302;2023-05-25T03:06:50;98469.53;;;20.28;58.89
33163;BME280;29282;45.656;11.302;2023-05-25T03:09:15;98476.19;;;20.27;58.56
33163;BME280;29282;45.656;11.302;2023-05-25T03:11:41;98486.38;;;20.26;58.61
33163;BME280;29282;45.656;11.302;2023-05-25T03:14:08;98477.00;;;20.27;58.67
33163;BME280;29282;45.656;11.302;2023-05-25T03:16:34;98475.38;;;20.26;58.58
33163;BME280;29282;45.656;11.302;2023-05-25T03:19:04;98475.38;;;20.26;58.64
33163;BME280;29282;45.656;11.302;2023-05-25T03:21:30;98488.00;;;20.27;58.58
33163;BME280;29282;45.656;11.302;2023-05-25T03:23:56;98475.38;;;20.26;58.58
33163;BME280;29282;45.656;11.302;2023-05-25T03:26:22;98489.13;;;20.26;58.63
33163;BME280;29282;45.656;11.302;2023-05-25T03:28:50;98488.34;;;20.26;58.65
33163;BME280;29282;45.656;11.302;2023-05-25T03:31:16;98491.88;;;20.26;58.73
33163;BME280;29282;45.656;11.302;2023-05-25T03:33:41;98498.22;;;20.27;58.73
33163;BME280;29282;45.656;11.302;2023-05-25T03:36:07;98496.59;;;20.26;58.65
33163;BME280;29282;45.656;11.302;2023-05-25T03:38:35;98507.59;;;20.26;58.75
33163;BME280;29282;45.656;11.302;2023-05-25T03:41:00;98509.22;;;20.27;58.71
33163;BME280;29282;45.656;11.302;2023-05-25T03:43:26;98517.47;;;20.27;58.68
33163;BME280;29282;45.656;11.302;2023-05-25T03:45:51;98521.34;;;20.26;58.69
33163;BME280;29282;45.656;11.302;2023-05-25T03:48:17;98530.41;;;20.26;58.80
33163;BME280;29282;45.656;11.302;2023-05-25T03:50:42;98531.22;;;20.27;58.68
33163;BME280;29282;45.656;11.302;2023-05-25T03:53:07;98535.09;;;20.26;58.70
33163;BME280;29282;45.656;11.302;2023-05-25T03:55:33;98529.59;;;20.26;58.69
33163;BME280;29282;45.656;11.302;2023-05-25T03:57:59;98528.00;;;20.25;58.71
33163;BME280;29282;45.656;11.302;2023-05-25T04:00:24;98537.84;;;20.26;58.46
33163;BME280;29282;45.656;11.302;2023-05-25T04:02:50;98545.31;;;20.25;58.58
33163;BME280;29282;45.656;11.302;2023-05-25T04:05:15;98556.31;;;20.25;58.62
33163;BME280;29282;45.656;11.302;2023-05-25T04:07:40;98557.91;;;20.26;58.55
33163;BME280;29282;45.656;11.302;2023-05-25T04:10:06;98563.41;;;20.26;58.47
33163;BME280;29282;45.656;11.302;2023-05-25T04:12:32;98562.63;;;20.26;58.64
33163;BME280;29282;45.656;11.302;2023-05-25T04:14:58;98557.13;;;20.26;58.75
33163;BME280;29282;45.656;11.302;2023-05-25T04:17:24;98555.53;;;20.25;58.58
33163;BME280;29282;45.656;11.302;2023-05-25T04:19:50;98564.56;;;20.25;58.55
33163;BME280;29282;45.656;11.302;2023-05-25T04:22:16;98568.13;;;20.26;58.92
33163;BME280;29282;45.656;11.302;2023-05-25T04:24:42;98564.56;;;20.25;58.80
33163;BME280;29282;45.656;11.302;2023-05-25T04:27:08;98562.75;;;19.96;60.28
33163;BME280;29282;45.656;11.302;2023-05-25T04:29:33;98562.84;;;19.87;60.18
33163;BME280;29282;45.656;11.302;2023-05-25T04:31:59;98564.38;;;19.97;60.28
33163;BME280;29282;45.656;11.302;2023-05-25T04:34:24;98564.81;;;19.99;60.13
33163;BME280;29282;45.656;11.302;2023-05-25T04:36:50;98558.88;;;19.76;61.27
33163;BME280;29282;45.656;11.302;2023-05-25T04:39:16;98557.91;;;19.81;60.96
33163;BME280;29282;45.656;11.302;2023-05-25T04:41:42;98558.59;;;19.90;61.24
33163;BME280;29282;45.656;11.302;2023-05-25T04:44:10;98562.19;;;19.90;61.43
33163;BME280;29282;45.656;11.302;2023-05-25T04:46:38;98572.81;;;19.92;61.57
33163;BME280;29282;45.656;11.302;2023-05-25T04:49:04;98577.59;;;19.83;61.89
33163;BME280;29282;45.656;11.302;2023-05-25T04:51:32;98583.19;;;19.74;62.25
33163;BME280;29282;45.656;11.302;2023-05-25T04:53:58;98581.91;;;19.71;62.16
33163;BME280;29282;45.656;11.302;2023-05-25T04:56:24;98586.34;;;19.64;62.36
33163;BME280;29282;45.656;11.302;2023-05-25T04:58:50;98584.69;;;19.63;62.25
33163;BME280;29282;45.656;11.302;2023-05-25T05:01:16;98591.19;;;19.58;62.79
33163;BME280;29282;45.656;11.302;2023-05-25T05:03:44;98587.28;;;19.68;62.17
33163;BME280;29282;45.656;11.302;2023-05-25T05:06:09;98583.84;;;19.71;62.12
33163;BME280;29282;45.656;11.302;2023-05-25T05:08:35;98584.84;;;19.66;62.17
33163;BME280;29282;45.656;11.302;2023-05-25T05:11:00;98594.44;;;19.81;61.29
33163;BME280;29282;45.656;11.302;2023-05-25T05:13:26;98593.91;;;19.88;60.58
33163;BME280;29282;45.656;11.302;2023-05-25T05:15:51;98598.72;;;19.91;60.44
33163;BME280;29282;45.656;11.302;2023-05-25T05:18:18;98596.78;;;19.91;60.39
33163;BME280;29282;45.656;11.302;2023-05-25T05:20:44;98610.19;;;19.93;60.30
33163;BME280;29282;45.656;11.302;2023-05-25T05:23:10;98601.94;;;19.93;59.96
33163;BME280;29282;45.656;11.302;2023-05-25T05:25:35;98615.66;;;19.93;60.00
33163;BME280;29282;45.656;11.302;2023-05-25T05:28:02;98615.66;;;19.93;60.15
33163;BME280;29282;45.656;11.302;2023-05-25T05:30:29;98617.56;;;20.01;60.49
33163;BME280;29282;45.656;11.302;2023-05-25T05:32:54;98624.22;;;20.00;60.61
33163;BME280;29282;45.656;11.302;2023-05-25T05:35:20;98631.31;;;20.01;60.65
33163;BME280;29282;45.656;11.302;2023-05-25T05:37:46;98637.25;;;20.03;60.70
33163;BME280;29282;45.656;11.302;2023-05-25T05:40:12;98631.91;;;20.07;60.51
33163;BME280;29282;45.656;11.302;2023-05-25T05:42:38;98631.25;;;20.10;60.36
33163;BME280;29282;45.656;11.302;2023-05-25T05:45:04;98641.41;;;20.09;60.39
33163;BME280;29282;45.656;11.302;2023-05-25T05:47:30;98637.56;;;20.10;60.32
33163;BME280;29282;45.656;11.302;2023-05-25T05:49:55;98642.25;;;20.10;60.16
33163;BME280;29282;45.656;11.302;2023-05-25T05:52:21;98644.16;;;20.09;60.48
33163;BME280;29282;45.656;11.302;2023-05-25T05:54:47;98635.91;;;20.09;60.36
33163;BME280;29282;45.656;11.302;2023-05-25T05:57:12;98643.38;;;20.09;60.30
33163;BME280;29282;45.656;11.302;2023-05-25T05:59:37;98643.38;;;20.09;60.27
33163;BME280;29282;45.656;11.302;2023-05-25T06:02:03;98635.13;;;20.09;60.20
33163;BME280;29282;45.656;11.302;2023-05-25T06:04:29;98657.94;;;20.09;60.09
33163;BME280;29282;45.656;11.302;2023-05-25T06:06:54;98661.81;;;20.08;60.16
33163;BME280;29282;45.656;11.302;2023-05-25T06:09:20;98663.44;;;20.09;60.03
33163;BME280;29282;45.656;11.302;2023-05-25T06:11:46;98672.81;;;20.08;60.06
33163;BME280;29282;45.656;11.302;2023-05-25T06:14:11;98678.00;;;20.10;60.09
33163;BME280;29282;45.656;11.302;2023-05-25T06:16:37;98679.94;;;20.09;59.96
33163;BME280;29282;45.656;11.302;2023-05-25T06:19:02;98671.69;;;20.09;60.08
33163;BME280;29282;45.656;11.302;2023-05-25T06:21:28;98675.25;;;20.10;60.08
33163;BME280;29282;45.656;11.302;2023-05-25T06:23:53;98690.63;;;20.11;59.91
33163;BME280;29282;45.656;11.302;2023-05-25T06:26:22;98691.75;;;20.10;59.85
33163;BME280;29282;45.656;11.302;2023-05-25T06:28:47;98702.78;;;20.10;59.86
33163;BME280;29282;45.656;11.302;2023-05-25T06:31:14;98708.28;;;20.10;59.80
33163;BME280;29282;45.656;11.302;2023-05-25T06:33:40;98705.84;;;20.08;59.82
33163;BME280;29282;45.656;11.302;2023-05-25T06:36:06;98708.59;;;20.08;59.87
33163;BME280;29282;45.656;11.302;2023-05-25T06:38:31;98705.84;;;20.08;59.77
33163;BME280;29282;45.656;11.302;2023-05-25T06:40:57;98715.69;;;20.09;59.86
33163;BME280;29282;45.656;11.302;2023-05-25T06:43:27;98716.53;;;20.10;59.86
33163;BME280;29282;45.656;11.302;2023-05-25T06:45:52;98725.56;;;20.10;59.93
33163;BME280;29282;45.656;11.302;2023-05-25T06:48:18;98732.19;;;20.09;59.73
33163;BME280;29282;45.656;11.302;2023-05-25T06:50:43;98731.06;;;20.10;59.62
33163;BME280;29282;45.656;11.302;2023-05-25T06:53:10;98726.69;;;20.09;59.70
33163;BME280;29282;45.656;11.302;2023-05-25T06:55:35;98733.81;;;20.10;59.65
33163;BME280;29282;45.656;11.302;2023-05-25T06:58:01;98731.06;;;20.10;59.65
33163;BME280;29282;45.656;11.302;2023-05-25T07:00:26;98743.19;;;20.09;59.84
33163;BME280;29282;45.656;11.302;2023-05-25T07:02:52;98744.81;;;20.10;59.83
33163;BME280;29282;45.656;11.302;2023-05-25T07:05:17;98742.88;;;20.11;59.87
33163;BME280;29282;45.656;11.302;2023-05-25T07:07:43;98746.78;;;20.10;59.53
33163;BME280;29282;45.656;11.302;2023-05-25T07:10:08;98745.63;;;20.11;59.84
33163;BME280;29282;45.656;11.302;2023-05-25T07:12:34;98755.84;;;20.10;59.81
33163;BME280;29282;45.656;11.302;2023-05-25T07:14:59;98756.63;;;20.11;59.72
33163;BME280;29282;45.656;11.302;2023-05-25T07:17:25;98754.69;;;20.11;59.61
33163;BME280;29282;45.656;11.302;2023-05-25T07:19:51;98761.34;;;20.10;59.60
33163;BME280;29282;45.656;11.302;2023-05-25T07:22:17;98762.13;;;20.11;59.62
33163;BME280;29282;45.656;11.302;2023-05-25T07:24:46;98775.88;;;20.11;59.73
33163;BME280;29282;45.656;11.302;2023-05-25T07:27:12;98775.88;;;20.11;59.68
33163;BME280;29282;45.656;11.302;2023-05-25T07:29:38;98766.03;;;20.10;59.93
33163;BME280;29282;45.656;11.302;2023-05-25T07:32:05;98762.44;;;20.09;59.84
33163;BME280;29282;45.656;11.302;2023-05-25T07:34:32;98767.94;;;20.09;59.63
33163;BME280;29282;45.656;11.302;2023-05-25T07:36:57;98765.22;;;20.09;59.48
33163;BME280;29282;45.656;11.302;2023-05-25T07:39:23;98763.28;;;20.10;59.61
33163;BME280;29282;45.656;11.302;2023-05-25T07:41:48;98755.03;;;20.10;59.54
33163;BME280;29282;45.656;11.302;2023-05-25T07:44:14;98750.34;;;20.10;59.54
33163;BME280;29282;45.656;11.302;2023-05-25T07:46:39;98752.28;;;20.10;59.48
33163;BME280;29282;45.656;11.302;2023-05-25T07:49:05;98755.03;;;20.10;59.45
33163;BME280;29282;45.656;11.302;2023-05-25T07:51:36;98746.78;;;20.10;59.45
33163;BME280;29282;45.656;11.302;2023-05-25T07:54:01;98742.88;;;20.11;59.42
33163;BME280;29282;45.656;11.302;2023-05-25T07:56:27;98733.03;;;20.10;59.48
33163;BME280;29282;45.656;11.302;2023-05-25T07:58:52;98729.13;;;20.11;59.51
33163;BME280;29282;45.656;11.302;2023-05-25T08:01:18;98714.56;;;20.10;59.44
33163;BME280;29282;45.656;11.302;2023-05-25T08:03:43;98720.06;;;20.10;59.38
33163;BME280;29282;45.656;11.302;2023-05-25T08:06:09;98718.91;;;20.11;59.36
33163;BME280;29282;45.656;11.302;2023-05-25T08:08:35;98709.88;;;20.11;59.44
33163;BME280;29282;45.656;11.302;2023-05-25T08:11:01;98712.28;;;20.12;59.47
33163;BME280;29282;45.656;11.302;2023-05-25T08:13:27;98711.47;;;20.12;59.61
33163;BME280;29282;45.656;11.302;2023-05-25T08:15:52;98714.69;;;20.14;59.32
33163;BME280;29282;45.656;11.302;2023-05-25T08:18:18;98722.97;;;20.14;59.53
33163;BME280;29282;45.656;11.302;2023-05-25T08:20:44;98725.72;;;20.14;59.43
33163;BME280;29282;45.656;11.302;2023-05-25T08:23:10;98730.84;;;20.15;59.38
33163;BME280;29282;45.656;11.302;2023-05-25T08:25:35;98730.06;;;20.15;59.44
33163;BME280;29282;45.656;11.302;2023-05-25T08:28:01;98735.56;;;20.15;59.42
33163;BME280;29282;45.656;11.302;2023-05-25T08:30:29;98736.38;;;20.15;59.59
33163;BME280;29282;45.656;11.302;2023-05-25T08:32:55;98735.25;;;20.16;59.57
33163;BME280;29282;45.656;11.302;2023-05-25T08:35:20;98747.03;;;20.17;59.46
33163;BME280;29282;45.656;11.302;2023-05-25T08:37:45;98743.50;;;20.16;59.36
33163;BME280;29282;45.656;11.302;2023-05-25T08:40:14;98754.94;;;20.18;59.50
33163;BME280;29282;45.656;11.302;2023-05-25T08:42:43;98769.84;;;20.17;59.37
33163;BME280;29282;45.656;11.302;2023-05-25T08:45:10;98762.41;;;20.18;59.42
33163;BME280;29282;45.656;11.302;2023-05-25T08:47:42;98763.56;;;20.17;59.50
33163;BME280;29282;45.656;11.302;2023-05-25T08:50:09;98761.25;;;20.19;59.49
33163;BME280;29282;45.656;11.302;2023-05-25T08:52:37;98763.22;;;20.18;59.55
33163;BME280;29282;45.656;11.302;2023-05-25T08:55:05;98770.66;;;20.18;59.40
33163;BME280;29282;45.656;11.302;2023-05-25T09:00:16;98768.72;;;20.18;59.42
33163;BME280;29282;45.656;11.302;2023-05-25T09:02:49;98773.06;;;20.19;59.37
33163;BME280;29282;45.656;11.302;2023-05-25T09:05:19;98776.66;;;20.20;59.25
33163;BME280;29282;45.656;11.302;2023-05-25T09:07:45;98773.91;;;20.20;59.37
33163;BME280;29282;45.656;11.302;2023-05-25T09:10:11;98775.81;;;20.19;59.45
33163;BME280;29282;45.656;11.302;2023-05-25T09:12:37;98775.50;;;20.21;59.24
33163;BME280;29282;45.656;11.302;2023-05-25T09:15:03;98777.44;;;20.21;59.26
33163;BME280;29282;45.656;11.302;2023-05-25T09:17:29;98781.78;;;20.22;59.40
33163;BME280;29282;45.656;11.302;2023-05-25T09:19:55;98783.75;;;20.21;59.49
33163;BME280;29282;45.656;11.302;2023-05-25T09:22:21;98785.69;;;20.21;59.30
33163;BME280;29282;45.656;11.302;2023-05-25T09:24:47;98792.31;;;20.19;59.45
33163;BME280;29282;45.656;11.302;2023-05-25T09:27:17;98791.19;;;20.21;59.39
33163;BME280;29282;45.656;11.302;2023-05-25T09:29:48;98781.00;;;20.21;59.30
33163;BME280;29282;45.656;11.302;2023-05-25T09:32:15;98783.75;;;20.21;59.37
33163;BME280;29282;45.656;11.302;2023-05-25T09:34:44;98779.03;;;20.22;59.21
33163;BME280;29282;45.656;11.302;2023-05-25T09:37:14;98781.78;;;20.22;59.06
33163;BME280;29282;45.656;11.302;2023-05-25T09:39:43;98773.22;;;20.23;59.08
33163;BME280;29282;45.656;11.302;2023-05-25T09:42:10;98766.09;;;20.22;59.17
33163;BME280;29282;45.656;11.302;2023-05-25T09:44:35;98773.22;;;20.23;58.88
33163;BME280;29282;45.656;11.302;2023-05-25T09:47:02;98772.41;;;20.23;59.05
33163;BME280;29282;45.656;11.302;2023-05-25T09:49:28;98770.13;;;20.25;59.05
33163;BME280;29282;45.656;11.302;2023-05-25T09:51:54;98776.78;;;20.24;59.24
33163;BME280;29282;45.656;11.302;2023-05-25T09:54:20;98776.78;;;20.24;59.29
33163;BME280;29282;45.656;11.302;2023-05-25T09:56:47;98764.63;;;20.25;59.15
33163;BME280;29282;45.656;11.302;2023-05-25T09:59:13;98760.28;;;20.24;59.09
33163;BME280;29282;45.656;11.302;2023-05-25T10:01:39;98764.63;;;20.25;59.15
33163;BME280;29282;45.656;11.302;2023-05-25T10:04:04;98759.13;;;20.25;59.27
33163;BME280;29282;45.656;11.302;2023-05-25T10:06:31;98753.63;;;20.25;59.23
33163;BME280;29282;45.656;11.302;2023-05-25T10:08:57;98750.88;;;20.25;59.30
33163;BME280;29282;45.656;11.302;2023-05-25T10:11:24;98748.13;;;20.25;59.20
33163;BME280;29282;45.656;11.302;2023-05-25T10:13:52;98748.13;;;20.25;59.41
33163;BME280;29282;45.656;11.302;2023-05-25T10:16:23;98746.16;;;20.25;59.31
33163;BME280;29282;45.656;11.302;2023-05-25T10:19:11;98750.06;;;20.24;59.43
33163;BME280;29282;45.656;11.302;2023-05-25T10:21:44;98748.13;;;20.25;59.34
33163;BME280;29282;45.656;11.302;2023-05-25T10:24:22;98747.31;;;20.24;59.37
33163;BME280;29282;45.656;11.302;2023-05-25T10:26:52;98742.63;;;20.25;59.42
33163;BME280;29282;45.656;11.302;2023-05-25T10:29:19;98746.97;;;20.26;59.39
33163;BME280;29282;45.656;11.302;2023-05-25T10:31:46;98742.63;;;20.25;59.54
33163;BME280;29282;45.656;11.302;2023-05-25T10:34:12;98744.22;;;20.26;59.56
33163;BME280;29282;45.656;11.302;2023-05-25T10:36:39;98739.50;;;20.26;59.44
33163;BME280;29282;45.656;11.302;2023-05-25T10:39:06;98735.63;;;20.27;59.25
33163;BME280;29282;45.656;11.302;2023-05-25T10:41:33;98740.34;;;20.27;59.39
33163;BME280;29282;45.656;11.302;2023-05-25T10:43:59;98733.22;;;20.26;59.32
33163;BME280;29282;45.656;11.302;2023-05-25T10:46:25;98734.00;;;20.26;59.59
33163;BME280;29282;45.656;11.302;2023-05-25T10:48:51;98742.25;;;20.26;59.30
33163;BME280;29282;45.656;11.302;2023-05-25T10:51:20;98735.97;;;20.26;59.39
33163;BME280;29282;45.656;11.302;2023-05-25T10:53:59;98735.16;;;20.25;59.66
33163;BME280;29282;45.656;11.302;2023-05-25T10:56:26;98729.66;;;20.25;59.53
33163;BME280;29282;45.656;11.302;2023-05-25T10:58:51;98726.91;;;20.25;59.61
33163;BME280;29282;45.656;11.302;2023-05-25T11:01:17;98724.94;;;20.26;59.66
33163;BME280;29282;45.656;11.302;2023-05-25T11:06:08;98722.19;;;20.26;59.46
33163;BME280;29282;45.656;11.302;2023-05-25T11:11:13;98724.94;;;20.26;59.43
33163;BME280;29282;45.656;11.302;2023-05-25T11:13:44;98729.34;;;20.27;59.33
33163;BME280;29282;45.656;11.302;2023-05-25T11:18:43;98729.34;;;20.27;59.43
33163;BME280;29282;45.656;11.302;2023-05-25T11:26:21;98721.88;;;20.27;59.53
33163;BME280;29282;45.656;11.302;2023-05-25T11:28:47;98720.72;;;20.28;59.41
33163;BME280;29282;45.656;11.302;2023-05-25T11:31:12;98726.22;;;20.28;59.55
33163;BME280;29282;45.656;11.302;2023-05-25T11:33:39;98716.03;;;20.29;59.38
33163;BME280;29282;45.656;11.302;2023-05-25T11:36:07;98718.47;;;20.30;59.36
33163;BME280;29282;45.656;11.302;2023-05-25T11:38:32;98716.50;;;20.31;59.56
33163;BME280;29282;45.656;11.302;2023-05-25T11:41:02;98710.66;;;20.32;59.74
33163;BME280;29282;45.656;11.302;2023-05-25T11:43:34;98707.59;;;20.34;60.04
33163;BME280;29282;45.656;11.302;2023-05-25T11:46:08;98705.63;;;20.34;59.83
33163;BME280;29282;45.656;11.302;2023-05-25T11:48:34;98702.06;;;20.34;60.18
33163;BME280;29282;45.656;11.302;2023-05-25T11:51:04;98699.31;;;20.34;60.07
33163;BME280;29282;45.656;11.302;2023-05-25T11:53:31;98702.06;;;20.34;60.27
33163;BME280;29282;45.656;11.302;2023-05-25T11:55:58;98693.81;;;20.34;60.29
33163;BME280;29282;45.656;11.302;2023-05-25T11:58:26;98692.66;;;20.35;60.13
33163;BME280;29282;45.656;11.302;2023-05-25T12:01:20;98692.66;;;20.35;60.31
33163;BME280;29282;45.656;11.302;2023-05-25T12:03:51;98692.66;;;20.35;60.30
33163;BME280;29282;45.656;11.302;2023-05-25T12:08:53;98685.69;;;20.37;60.25
33163;BME280;29282;45.656;11.302;2023-05-25T12:11:39;98683.25;;;20.36;60.52
33163;BME280;29282;45.656;11.302;2023-05-25T12:14:09;98682.13;;;20.37;60.32
33163;BME280;29282;45.656;11.302;2023-05-25T12:16:36;98682.13;;;20.37;60.50
33163;BME280;29282;45.656;11.302;2023-05-25T12:19:08;98683.75;;;20.38;60.63
33163;BME280;29282;45.656;11.302;2023-05-25T12:21:36;98667.59;;;20.36;60.75
33163;BME280;29282;45.656;11.302;2023-05-25T12:24:03;98673.88;;;20.37;60.59
33163;BME280;29282;45.656;11.302;2023-05-25T12:26:30;98673.88;;;20.37;60.54
33163;BME280;29282;45.656;11.302;2023-05-25T12:29:04;98672.72;;;20.38;60.71
33163;BME280;29282;45.656;11.302;2023-05-25T12:31:35;98671.13;;;20.37;60.67
33163;BME280;29282;45.656;11.302;2023-05-25T12:39:06;98656.22;;;20.38;60.38
33163;BME280;29282;45.656;11.302;2023-05-25T12:41:41;98659.78;;;20.38;60.42
33163;BME280;29282;45.656;11.302;2023-05-25T12:44:15;98654.28;;;20.38;60.42
33163;BME280;29282;45.656;11.302;2023-05-25T12:46:41;98646.81;;;20.39;60.34
33163;BME280;29282;45.656;11.302;2023-05-25T12:49:27;98646.81;;;20.39;60.35
33163;BME280;29282;45.656;11.302;2023-05-25T12:51:53;98633.06;;;20.39;60.23
33163;BME280;29282;45.656;11.302;2023-05-25T12:57:10;98640.19;;;20.40;60.37
33163;BME280;29282;45.656;11.302;2023-05-25T12:59:36;98638.56;;;20.39;60.25
33163;BME280;29282;45.656;11.302;2023-05-25T13:02:06;98639.34;;;20.39;60.12
33163;BME280;29282;45.656;11.302;2023-05-25T13:04:33;98640.19;;;20.40;60.22
33163;BME280;29282;45.656;11.302;2023-05-25T13:06:59;98640.19;;;20.40;60.39
33163;BME280;29282;45.656;11.302;2023-05-25T13:09:25;98644.53;;;20.41;60.39
33163;BME280;29282;45.656;11.302;2023-05-25T13:11:55;98636.28;;;20.41;60.15
33163;BME280;29282;45.656;11.302;2023-05-25T13:14:24;98634.69;;;20.40;60.20
33163;BME280;29282;45.656;11.302;2023-05-25T13:16:52;98629.19;;;20.40;60.22